sensor_id;sensor_type;location;lat;lon;timestamp;P1;durP1;ratioP1;P2;durP2;ratioP2
35522;SDS011;61478;50.820;4.330;2023-04-30T00:01:23;18.67;;;15.00;;
35522;SDS011;61478;50.820;4.330;2023-04-30T00:03:50;21.27;;;14.50;;
35522;SDS011;61478;50.820;4.330;2023-04-30T00:06:19;21.90;;;14.73;;
35522;SDS011;61478;50.820;4.330;2023-04-30T00:08:48;21.75;;;14.63;;
35522;SDS011;61478;50.820;4.330;2023-04-30T00:11:14;15.95;;;13.55;;
35522;SDS011;61478;50.820;4.330;2023-04-30T00:13:40;19.73;;;14.38;;
35522;SDS011;61478;50.820;4.330;2023-04-30T00:16:10;21.23;;;11.77;;
35522;SDS011;61478;50.820;4.330;2023-04-30T00:18:37;11.63;;;10.43;;
35522;SDS011;61478;50.820;4.330;2023-04-30T00:21:11;17.08;;;11.52;;
35522;SDS011;61478;50.820;4.330;2023-04-30T00:23:43;13.43;;;10.77;;
35522;SDS011;61478;50.820;4.330;2023-04-30T00:26:12;22.33;;;13.38;;
35522;SDS011;61478;50.820;4.330;2023-04-30T00:28:44;21.90;;;11.05;;
35522;SDS011;61478;50.820;4.330;2023-04-30T00:31:13;16.45;;;10.43;;
35522;SDS011;61478;50.820;4.330;2023-04-30T00:33:42;12.35;;;9.60;;
35522;SDS011;61478;50.820;4.330;2023-04-30T00:36:09;13.23;;;10.23;;
35522;SDS011;61478;50.820;4.330;2023-04-30T00:38:35;16.88;;;10.15;;
35522;SDS011;61478;50.820;4.330;2023-04-30T00:41:04;13.18;;;10.23;;
35522;SDS011;61478;50.820;4.330;2023-04-30T00:43:37;12.45;;;9.93;;
35522;SDS011;61478;50.820;4.330;2023-04-30T00:46:06;15.73;;;10.57;;
35522;SDS011;61478;50.820;4.330;2023-04-30T00:48:35;12.98;;;10.32;;
35522;SDS011;61478;50.820;4.330;2023-04-30T00:51:08;11.05;;;8.40;;
35522;SDS011;61478;50.820;4.330;2023-04-30T00:53:38;11.90;;;9.38;;
35522;SDS011;61478;50.820;4.330;2023-04-30T00:56:12;22.52;;;10.68;;
35522;SDS011;61478;50.820;4.330;2023-04-30T00:58:43;17.50;;;9.85;;
35522;SDS011;61478;50.820;4.330;2023-04-30T01:01:14;10.93;;;8.63;;
35522;SDS011;61478;50.820;4.330;2023-04-30T01:03:43;10.50;;;8.93;;
35522;SDS011;61478;50.820;4.330;2023-04-30T01:06:12;13.40;;;9.10;;
35522;SDS011;61478;50.820;4.330;2023-04-30T01:08:41;11.23;;;8.35;;
35522;SDS011;61478;50.820;4.330;2023-04-30T01:16:50;13.80;;;8.95;;
35522;SDS011;61478;50.820;4.330;2023-04-30T01:19:40;13.32;;;8.93;;
35522;SDS011;61478;50.820;4.330;2023-04-30T01:22:10;13.32;;;9.65;;
35522;SDS011;61478;50.820;4.330;2023-04-30T01:28:04;12.73;;;8.73;;
35522;SDS011;61478;50.820;4.330;2023-04-30T01:30:35;12.48;;;8.20;;
35522;SDS011;61478;50.820;4.330;2023-04-30T01:33:04;13.43;;;8.88;;
35522;SDS011;61478;50.820;4.330;2023-04-30T01:38:27;13.50;;;8.50;;
35522;SDS011;61478;50.820;4.330;2023-04-30T01:41:09;12.20;;;8.80;;
35522;SDS011;61478;50.820;4.330;2023-04-30T01:43:54;11.57;;;9.32;;
35522;SDS011;61478;50.820;4.330;2023-04-30T01:46:36;12.73;;;8.80;;
35522;SDS011;61478;50.820;4.330;2023-04-30T01:51:42;13.52;;;9.02;;
35522;SDS011;61478;50.820;4.330;2023-04-30T01:57:00;13.55;;;8.52;;
35522;SDS011;61478;50.820;4.330;2023-04-30T01:59:34;15.50;;;8.75;;
35522;SDS011;61478;50.820;4.330;2023-04-30T02:02:02;11.40;;;8.55;;
35522;SDS011;61478;50.820;4.330;2023-04-30T02:04:29;18.58;;;9.27;;
35522;SDS011;61478;50.820;4.330;2023-04-30T02:06:55;10.20;;;9.13;;
35522;SDS011;61478;50.820;4.330;2023-04-30T02:09:25;13.68;;;10.00;;
35522;SDS011;61478;50.820;4.330;2023-04-30T02:11:51;12.73;;;10.05;;
35522;SDS011;61478;50.820;4.330;2023-04-30T02:14:17;14.38;;;10.13;;
35522;SDS011;61478;50.820;4.330;2023-04-30T02:16:44;13.02;;;9.52;;
35522;SDS011;61478;50.820;4.330;2023-04-30T02:19:10;14.27;;;10.85;;
35522;SDS011;61478;50.820;4.330;2023-04-30T02:21:36;16.73;;;10.57;;
35522;SDS011;61478;50.820;4.330;2023-04-30T02:24:08;14.52;;;9.43;;
35522;SDS011;61478;50.820;4.330;2023-04-30T02:26:38;13.40;;;9.57;;
35522;SDS011;61478;50.820;4.330;2023-04-30T02:29:06;12.05;;;9.77;;
35522;SDS011;61478;50.820;4.330;2023-04-30T02:31:42;15.57;;;9.57;;
35522;SDS011;61478;50.820;4.330;2023-04-30T02:34:08;15.88;;;10.43;;
35522;SDS011;61478;50.820;4.330;2023-04-30T02:36:34;11.57;;;8.98;;
35522;SDS011;61478;50.820;4.330;2023-04-30T02:39:04;12.88;;;10.43;;
35522;SDS011;61478;50.820;4.330;2023-04-30T02:41:33;11.52;;;9.60;;
35522;SDS011;61478;50.820;4.330;2023-04-30T02:44:00;11.88;;;9.00;;
35522;SDS011;61478;50.820;4.330;2023-04-30T02:46:27;14.02;;;9.82;;
35522;SDS011;61478;50.820;4.330;2023-04-30T02:48:56;13.77;;;10.73;;
35522;SDS011;61478;50.820;4.330;2023-04-30T02:51:28;17.17;;;8.98;;
35522;SDS011;61478;50.820;4.330;2023-04-30T02:53:57;13.30;;;9.52;;
35522;SDS011;61478;50.820;4.330;2023-04-30T02:56:29;14.98;;;10.18;;
35522;SDS011;61478;50.820;4.330;2023-04-30T02:58:59;13.50;;;9.40;;
35522;SDS011;61478;50.820;4.330;2023-04-30T03:01:29;11.90;;;9.80;;
35522;SDS011;61478;50.820;4.330;2023-04-30T03:04:03;10.10;;;8.82;;
35522;SDS011;61478;50.820;4.330;2023-04-30T03:06:37;12.75;;;9.88;;
35522;SDS011;61478;50.820;4.330;2023-04-30T03:09:13;13.23;;;8.82;;
35522;SDS011;61478;50.820;4.330;2023-04-30T03:11:42;14.05;;;9.30;;
35522;SDS011;61478;50.820;4.330;2023-04-30T03:14:14;10.15;;;8.63;;
35522;SDS011;61478;50.820;4.330;2023-04-30T03:16:43;11.20;;;8.98;;
35522;SDS011;61478;50.820;4.330;2023-04-30T03:19:09;14.63;;;8.85;;
35522;SDS011;61478;50.820;4.330;2023-04-30T03:21:35;12.73;;;8.18;;
35522;SDS011;61478;50.820;4.330;2023-04-30T03:24:01;11.63;;;8.88;;
35522;SDS011;61478;50.820;4.330;2023-04-30T03:26:31;12.40;;;9.05;;
35522;SDS011;61478;50.820;4.330;2023-04-30T03:28:58;13.35;;;9.13;;
35522;SDS011;61478;50.820;4.330;2023-04-30T03:31:27;12.93;;;9.88;;
35522;SDS011;61478;50.820;4.330;2023-04-30T03:33:59;12.23;;;9.25;;
35522;SDS011;61478;50.820;4.330;2023-04-30T03:36:28;16.52;;;9.65;;
35522;SDS011;61478;50.820;4.330;2023-04-30T03:39:01;12.48;;;9.55;;
35522;SDS011;61478;50.820;4.330;2023-04-30T03:41:27;12.00;;;9.27;;
35522;SDS011;61478;50.820;4.330;2023-04-30T03:44:01;16.20;;;9.82;;
35522;SDS011;61478;50.820;4.330;2023-04-30T03:46:30;13.77;;;9.60;;
35522;SDS011;61478;50.820;4.330;2023-04-30T03:48:57;13.13;;;10.20;;
35522;SDS011;61478;50.820;4.330;2023-04-30T03:51:23;13.50;;;9.70;;
35522;SDS011;61478;50.820;4.330;2023-04-30T03:53:53;13.07;;;9.60;;
35522;SDS011;61478;50.820;4.330;2023-04-30T03:56:24;11.35;;;9.60;;
35522;SDS011;61478;50.820;4.330;2023-04-30T03:58:56;12.93;;;9.45;;
35522;SDS011;61478;50.820;4.330;2023-04-30T04:01:25;12.77;;;9.50;;
35522;SDS011;61478;50.820;4.330;2023-04-30T04:03:53;12.07;;;10.38;;
35522;SDS011;61478;50.820;4.330;2023-04-30T04:06:23;13.38;;;9.75;;
35522;SDS011;61478;50.820;4.330;2023-04-30T04:08:48;14.43;;;10.63;;
35522;SDS011;61478;50.820;4.330;2023-04-30T04:11:15;15.52;;;11.23;;
35522;SDS011;61478;50.820;4.330;2023-04-30T04:13:41;16.58;;;10.55;;
35522;SDS011;61478;50.820;4.330;2023-04-30T04:16:10;16.45;;;10.60;;
35522;SDS011;61478;50.820;4.330;2023-04-30T04:18:41;13.68;;;10.57;;
35522;SDS011;61478;50.820;4.330;2023-04-30T04:21:13;13.80;;;10.85;;
35522;SDS011;61478;50.820;4.330;2023-04-30T04:23:42;16.73;;;12.10;;
35522;SDS011;61478;50.820;4.330;2023-04-30T04:26:20;14.90;;;11.65;;
35522;SDS011;61478;50.820;4.330;2023-04-30T04:28:48;15.57;;;11.75;;
35522;SDS011;61478;50.820;4.330;2023-04-30T04:31:20;15.90;;;12.05;;
35522;SDS011;61478;50.820;4.330;2023-04-30T04:33:52;12.93;;;11.57;;
35522;SDS011;61478;50.820;4.330;2023-04-30T04:36:24;14.32;;;12.27;;
35522;SDS011;61478;50.820;4.330;2023-04-30T04:38:57;18.08;;;11.65;;
35522;SDS011;61478;50.820;4.330;2023-04-30T04:41:32;15.32;;;12.20;;
35522;SDS011;61478;50.820;4.330;2023-04-30T04:44:02;15.73;;;13.30;;
35522;SDS011;61478;50.820;4.330;2023-04-30T04:46:33;14.57;;;13.07;;
35522;SDS011;61478;50.820;4.330;2023-04-30T04:49:01;16.50;;;12.35;;
35522;SDS011;61478;50.820;4.330;2023-04-30T04:51:31;21.48;;;13.95;;
35522;SDS011;61478;50.820;4.330;2023-04-30T04:54:00;18.30;;;13.52;;
35522;SDS011;61478;50.820;4.330;2023-04-30T04:56:27;16.13;;;14.00;;
35522;SDS011;61478;50.820;4.330;2023-04-30T04:58:57;16.52;;;13.98;;
35522;SDS011;61478;50.820;4.330;2023-04-30T05:01:23;17.30;;;14.60;;
35522;SDS011;61478;50.820;4.330;2023-04-30T05:03:54;17.10;;;14.45;;
35522;SDS011;61478;50.820;4.330;2023-04-30T05:06:23;22.90;;;15.02;;
35522;SDS011;61478;50.820;4.330;2023-04-30T05:08:49;18.17;;;14.43;;
35522;SDS011;61478;50.820;4.330;2023-04-30T05:11:19;16.98;;;14.27;;
35522;SDS011;61478;50.820;4.330;2023-04-30T05:13:47;18.02;;;14.82;;
35522;SDS011;61478;50.820;4.330;2023-04-30T05:16:13;17.25;;;14.55;;
35522;SDS011;61478;50.820;4.330;2023-04-30T05:18:42;20.95;;;14.73;;
35522;SDS011;61478;50.820;4.330;2023-04-30T05:21:13;20.65;;;14.07;;
35522;SDS011;61478;50.820;4.330;2023-04-30T05:23:47;19.05;;;14.07;;
35522;SDS011;61478;50.820;4.330;2023-04-30T05:26:19;19.60;;;14.63;;
35522;SDS011;61478;50.820;4.330;2023-04-30T05:28:48;16.10;;;14.40;;
35522;SDS011;61478;50.820;4.330;2023-04-30T05:31:20;25.70;;;15.07;;
35522;SDS011;61478;50.820;4.330;2023-04-30T05:33:50;21.90;;;15.20;;
35522;SDS011;61478;50.820;4.330;2023-04-30T05:36:21;21.90;;;15.40;;
35522;SDS011;61478;50.820;4.330;2023-04-30T05:39:02;21.73;;;15.73;;
35522;SDS011;61478;50.820;4.330;2023-04-30T05:41:32;21.20;;;16.92;;
35522;SDS011;61478;50.820;4.330;2023-04-30T05:44:01;20.15;;;16.77;;
35522;SDS011;61478;50.820;4.330;2023-04-30T05:46:32;20.52;;;16.52;;
35522;SDS011;61478;50.820;4.330;2023-04-30T05:49:04;22.08;;;18.60;;
35522;SDS011;61478;50.820;4.330;2023-04-30T05:51:34;21.95;;;15.70;;
35522;SDS011;61478;50.820;4.330;2023-04-30T05:54:03;20.02;;;17.90;;
35522;SDS011;61478;50.820;4.330;2023-04-30T05:56:29;20.38;;;17.73;;
35522;SDS011;61478;50.820;4.330;2023-04-30T05:59:01;21.30;;;17.70;;
35522;SDS011;61478;50.820;4.330;2023-04-30T06:01:33;23.10;;;18.23;;
35522;SDS011;61478;50.820;4.330;2023-04-30T06:04:04;23.25;;;18.25;;
35522;SDS011;61478;50.820;4.330;2023-04-30T06:06:33;24.00;;;19.00;;
35522;SDS011;61478;50.820;4.330;2023-04-30T06:09:00;21.35;;;17.52;;
35522;SDS011;61478;50.820;4.330;2023-04-30T06:11:29;23.38;;;18.08;;
35522;SDS011;61478;50.820;4.330;2023-04-30T06:13:58;23.92;;;18.33;;
35522;SDS011;61478;50.820;4.330;2023-04-30T06:16:24;23.13;;;17.95;;
35522;SDS011;61478;50.820;4.330;2023-04-30T06:18:53;21.77;;;16.70;;
35522;SDS011;61478;50.820;4.330;2023-04-30T06:21:23;21.50;;;17.73;;
35522;SDS011;61478;50.820;4.330;2023-04-30T06:23:50;21.75;;;19.38;;
35522;SDS011;61478;50.820;4.330;2023-04-30T06:26:18;21.33;;;18.38;;
35522;SDS011;61478;50.820;4.330;2023-04-30T06:28:44;23.45;;;18.48;;
35522;SDS011;61478;50.820;4.330;2023-04-30T06:31:10;28.52;;;20.27;;
35522;SDS011;61478;50.820;4.330;2023-04-30T06:33:37;25.98;;;18.95;;
35522;SDS011;61478;50.820;4.330;2023-04-30T06:36:03;25.77;;;20.15;;
35522;SDS011;61478;50.820;4.330;2023-04-30T06:38:29;23.20;;;19.58;;
35522;SDS011;61478;50.820;4.330;2023-04-30T06:40:56;24.42;;;20.25;;
35522;SDS011;61478;50.820;4.330;2023-04-30T06:43:22;27.05;;;19.67;;
35522;SDS011;61478;50.820;4.330;2023-04-30T06:45:48;29.13;;;19.63;;
35522;SDS011;61478;50.820;4.330;2023-04-30T06:48:13;26.42;;;18.90;;
35522;SDS011;61478;50.820;4.330;2023-04-30T06:50:39;26.77;;;21.35;;
35522;SDS011;61478;50.820;4.330;2023-04-30T06:53:12;24.90;;;20.83;;
35522;SDS011;61478;50.820;4.330;2023-04-30T06:55:39;24.15;;;20.88;;
35522;SDS011;61478;50.820;4.330;2023-04-30T06:58:05;24.42;;;20.98;;
35522;SDS011;61478;50.820;4.330;2023-04-30T07:00:32;26.33;;;22.63;;
35522;SDS011;61478;50.820;4.330;2023-04-30T07:03:00;25.42;;;22.73;;
35522;SDS011;61478;50.820;4.330;2023-04-30T07:05:28;27.20;;;22.20;;
35522;SDS011;61478;50.820;4.330;2023-04-30T07:07:54;29.20;;;22.10;;
35522;SDS011;61478;50.820;4.330;2023-04-30T07:10:21;27.58;;;21.60;;
35522;SDS011;61478;50.820;4.330;2023-04-30T07:12:47;27.98;;;22.33;;
35522;SDS011;61478;50.820;4.330;2023-04-30T07:15:12;29.58;;;23.52;;
35522;SDS011;61478;50.820;4.330;2023-04-30T07:17:38;27.60;;;23.65;;
35522;SDS011;61478;50.820;4.330;2023-04-30T07:20:06;29.45;;;23.77;;
35522;SDS011;61478;50.820;4.330;2023-04-30T07:22:33;27.40;;;24.42;;
35522;SDS011;61478;50.820;4.330;2023-04-30T07:24:58;32.53;;;24.48;;
35522;SDS011;61478;50.820;4.330;2023-04-30T07:27:25;30.75;;;23.10;;
35522;SDS011;61478;50.820;4.330;2023-04-30T07:29:52;25.88;;;22.48;;
35522;SDS011;61478;50.820;4.330;2023-04-30T07:32:19;26.17;;;21.48;;
35522;SDS011;61478;50.820;4.330;2023-04-30T07:34:45;27.52;;;22.20;;
35522;SDS011;61478;50.820;4.330;2023-04-30T07:37:12;25.85;;;22.92;;
35522;SDS011;61478;50.820;4.330;2023-04-30T07:39:38;26.20;;;21.67;;
35522;SDS011;61478;50.820;4.330;2023-04-30T07:42:05;27.42;;;21.77;;
35522;SDS011;61478;50.820;4.330;2023-04-30T07:44:31;27.08;;;22.25;;
35522;SDS011;61478;50.820;4.330;2023-04-30T07:46:56;25.35;;;21.77;;
35522;SDS011;61478;50.820;4.330;2023-04-30T07:49:22;24.85;;;21.63;;
35522;SDS011;61478;50.820;4.330;2023-04-30T07:51:49;26.00;;;20.83;;
35522;SDS011;61478;50.820;4.330;2023-04-30T07:54:16;24.92;;;19.85;;
35522;SDS011;61478;50.820;4.330;2023-04-30T07:56:42;23.33;;;19.65;;
35522;SDS011;61478;50.820;4.330;2023-04-30T07:59:07;23.98;;;20.40;;
35522;SDS011;61478;50.820;4.330;2023-04-30T08:01:33;22.90;;;20.25;;
35522;SDS011;61478;50.820;4.330;2023-04-30T08:03:59;22.08;;;18.50;;
35522;SDS011;61478;50.820;4.330;2023-04-30T08:06:25;27.92;;;23.65;;
35522;SDS011;61478;50.820;4.330;2023-04-30T08:08:54;23.15;;;20.00;;
35522;SDS011;61478;50.820;4.330;2023-04-30T08:11:20;23.77;;;19.27;;
35522;SDS011;61478;50.820;4.330;2023-04-30T08:13:46;23.38;;;19.60;;
35522;SDS011;61478;50.820;4.330;2023-04-30T08:16:12;22.55;;;18.13;;
35522;SDS011;61478;50.820;4.330;2023-04-30T08:18:38;24.88;;;18.40;;
35522;SDS011;61478;50.820;4.330;2023-04-30T08:21:08;21.20;;;17.40;;
35522;SDS011;61478;50.820;4.330;2023-04-30T08:23:35;22.02;;;16.45;;
35522;SDS011;61478;50.820;4.330;2023-04-30T08:26:02;21.83;;;17.13;;
35522;SDS011;61478;50.820;4.330;2023-04-30T08:28:28;25.88;;;16.88;;
35522;SDS011;61478;50.820;4.330;2023-04-30T08:30:54;20.73;;;15.90;;
35522;SDS011;61478;50.820;4.330;2023-04-30T08:33:20;23.25;;;16.15;;
35522;SDS011;61478;50.820;4.330;2023-04-30T08:35:46;18.67;;;15.82;;
35522;SDS011;61478;50.820;4.330;2023-04-30T08:38:12;16.92;;;13.13;;
35522;SDS011;61478;50.820;4.330;2023-04-30T08:40:37;22.58;;;15.27;;
35522;SDS011;61478;50.820;4.330;2023-04-30T08:43:06;19.00;;;15.00;;
35522;SDS011;61478;50.820;4.330;2023-04-30T08:45:34;16.33;;;13.65;;
35522;SDS011;61478;50.820;4.330;2023-04-30T08:48:03;16.25;;;13.93;;
35522;SDS011;61478;50.820;4.330;2023-04-30T08:50:29;23.05;;;13.98;;
35522;SDS011;61478;50.820;4.330;2023-04-30T08:52:59;18.30;;;12.35;;
35522;SDS011;61478;50.820;4.330;2023-04-30T08:55:26;13.45;;;11.20;;
35522;SDS011;61478;50.820;4.330;2023-04-30T08:57:52;14.60;;;12.75;;
35522;SDS011;61478;50.820;4.330;2023-04-30T09:00:18;13.95;;;11.70;;
35522;SDS011;61478;50.820;4.330;2023-04-30T09:02:44;15.02;;;11.38;;
35522;SDS011;61478;50.820;4.330;2023-04-30T09:05:13;14.23;;;10.70;;
35522;SDS011;61478;50.820;4.330;2023-04-30T09:07:41;14.75;;;9.82;;
35522;SDS011;61478;50.820;4.330;2023-04-30T09:10:18;12.82;;;9.35;;
35522;SDS011;61478;50.820;4.330;2023-04-30T09:13:01;18.80;;;10.27;;
35522;SDS011;61478;50.820;4.330;2023-04-30T09:15:28;18.23;;;9.15;;
35522;SDS011;61478;50.820;4.330;2023-04-30T09:18:07;14.95;;;9.60;;
35522;SDS011;61478;50.820;4.330;2023-04-30T09:20:35;9.85;;;7.22;;
35522;SDS011;61478;50.820;4.330;2023-04-30T09:23:08;13.02;;;7.50;;
35522;SDS011;61478;50.820;4.330;2023-04-30T09:25:38;19.38;;;7.15;;
35522;SDS011;61478;50.820;4.330;2023-04-30T09:28:06;13.38;;;7.00;;
35522;SDS011;61478;50.820;4.330;2023-04-30T09:30:33;12.52;;;8.63;;
35522;SDS011;61478;50.820;4.330;2023-04-30T09:32:59;13.43;;;7.40;;
35522;SDS011;61478;50.820;4.330;2023-04-30T09:35:32;10.48;;;8.32;;
35522;SDS011;61478;50.820;4.330;2023-04-30T09:38:27;8.63;;;6.82;;
35522;SDS011;61478;50.820;4.330;2023-04-30T09:40:56;10.57;;;7.57;;
35522;SDS011;61478;50.820;4.330;2023-04-30T09:43:24;16.02;;;9.05;;
35522;SDS011;61478;50.820;4.330;2023-04-30T09:45:50;10.75;;;8.52;;
35522;SDS011;61478;50.820;4.330;2023-04-30T09:48:23;12.63;;;9.40;;
35522;SDS011;61478;50.820;4.330;2023-04-30T09:50:52;15.18;;;9.38;;
35522;SDS011;61478;50.820;4.330;2023-04-30T09:53:18;13.88;;;10.07;;
35522;SDS011;61478;50.820;4.330;2023-04-30T09:55:45;17.27;;;9.88;;
35522;SDS011;61478;50.820;4.330;2023-04-30T09:58:12;16.58;;;10.02;;
35522;SDS011;61478;50.820;4.330;2023-04-30T10:00:41;18.73;;;10.45;;
35522;SDS011;61478;50.820;4.330;2023-04-30T10:03:08;10.90;;;8.80;;
35522;SDS011;61478;50.820;4.330;2023-04-30T10:05:36;12.57;;;9.00;;
35522;SDS011;61478;50.820;4.330;2023-04-30T10:08:06;12.00;;;8.50;;
35522;SDS011;61478;50.820;4.330;2023-04-30T10:10:39;11.70;;;7.47;;
35522;SDS011;61478;50.820;4.330;2023-04-30T10:13:09;9.85;;;7.35;;
35522;SDS011;61478;50.820;4.330;2023-04-30T10:15:42;10.00;;;7.75;;
35522;SDS011;61478;50.820;4.330;2023-04-30T10:18:18;14.00;;;8.33;;
35522;SDS011;61478;50.820;4.330;2023-04-30T10:20:47;9.70;;;8.32;;
35522;SDS011;61478;50.820;4.330;2023-04-30T10:23:16;11.43;;;8.00;;
35522;SDS011;61478;50.820;4.330;2023-04-30T10:25:42;15.52;;;7.38;;
35522;SDS011;61478;50.820;4.330;2023-04-30T10:28:09;10.35;;;7.80;;
35522;SDS011;61478;50.820;4.330;2023-04-30T10:30:36;9.02;;;7.10;;
35522;SDS011;61478;50.820;4.330;2023-04-30T10:33:09;8.25;;;6.13;;
35522;SDS011;61478;50.820;4.330;2023-04-30T10:35:55;11.25;;;5.93;;
35522;SDS011;61478;50.820;4.330;2023-04-30T10:38:26;8.85;;;5.97;;
35522;SDS011;61478;50.820;4.330;2023-04-30T10:41:00;12.75;;;6.13;;
35522;SDS011;61478;50.820;4.330;2023-04-30T10:43:28;10.48;;;6.88;;
35522;SDS011;61478;50.820;4.330;2023-04-30T10:45:58;6.18;;;5.03;;
35522;SDS011;61478;50.820;4.330;2023-04-30T10:48:24;8.60;;;6.05;;
35522;SDS011;61478;50.820;4.330;2023-04-30T10:50:54;12.13;;;6.45;;
35522;SDS011;61478;50.820;4.330;2023-04-30T10:53:21;6.68;;;5.95;;
35522;SDS011;61478;50.820;4.330;2023-04-30T10:56:02;7.05;;;5.50;;
35522;SDS011;61478;50.820;4.330;2023-04-30T10:58:37;75.13;;;10.13;;
35522;SDS011;61478;50.820;4.330;2023-04-30T11:01:15;6.88;;;5.00;;
35522;SDS011;61478;50.820;4.330;2023-04-30T11:03:42;6.22;;;5.40;;
35522;SDS011;61478;50.820;4.330;2023-04-30T11:06:48;10.02;;;6.60;;
35522;SDS011;61478;50.820;4.330;2023-04-30T11:09:40;6.70;;;4.70;;
35522;SDS011;61478;50.820;4.330;2023-04-30T11:12:11;10.73;;;5.38;;
35522;SDS011;61478;50.820;4.330;2023-04-30T11:14:44;9.98;;;4.93;;
35522;SDS011;61478;50.820;4.330;2023-04-30T11:17:11;7.20;;;5.38;;
35522;SDS011;61478;50.820;4.330;2023-04-30T11:19:47;7.22;;;5.13;;
35522;SDS011;61478;50.820;4.330;2023-04-30T11:22:15;8.30;;;5.65;;
35522;SDS011;61478;50.820;4.330;2023-04-30T11:27:23;7.28;;;5.60;;
35522;SDS011;61478;50.820;4.330;2023-04-30T11:29:51;7.78;;;5.15;;
35522;SDS011;61478;50.820;4.330;2023-04-30T11:32:18;5.75;;;4.57;;
35522;SDS011;61478;50.820;4.330;2023-04-30T11:34:45;9.00;;;5.10;;
35522;SDS011;61478;50.820;4.330;2023-04-30T11:37:19;8.73;;;4.72;;
35522;SDS011;61478;50.820;4.330;2023-04-30T11:39:46;5.55;;;4.38;;
35522;SDS011;61478;50.820;4.330;2023-04-30T11:42:16;6.85;;;5.15;;
35522;SDS011;61478;50.820;4.330;2023-04-30T11:44:43;8.20;;;5.07;;
35522;SDS011;61478;50.820;4.330;2023-04-30T11:47:11;8.85;;;5.22;;
35522;SDS011;61478;50.820;4.330;2023-04-30T11:49:38;6.28;;;4.75;;
35522;SDS011;61478;50.820;4.330;2023-04-30T11:52:04;7.28;;;5.53;;
35522;SDS011;61478;50.820;4.330;2023-04-30T11:54:37;6.68;;;5.13;;
35522;SDS011;61478;50.820;4.330;2023-04-30T11:57:03;6.43;;;5.25;;
35522;SDS011;61478;50.820;4.330;2023-04-30T11:59:30;9.20;;;5.68;;
35522;SDS011;61478;50.820;4.330;2023-04-30T12:02:05;7.40;;;4.95;;
35522;SDS011;61478;50.820;4.330;2023-04-30T12:04:31;5.28;;;4.78;;
35522;SDS011;61478;50.820;4.330;2023-04-30T12:06:58;8.18;;;5.93;;
35522;SDS011;61478;50.820;4.330;2023-04-30T12:09:24;6.07;;;5.05;;
35522;SDS011;61478;50.820;4.330;2023-04-30T12:11:50;8.00;;;4.63;;
35522;SDS011;61478;50.820;4.330;2023-04-30T12:14:16;10.30;;;5.40;;
35522;SDS011;61478;50.820;4.330;2023-04-30T12:16:46;6.65;;;4.72;;
35522;SDS011;61478;50.820;4.330;2023-04-30T12:19:17;6.55;;;4.20;;
35522;SDS011;61478;50.820;4.330;2023-04-30T12:21:45;6.82;;;5.50;;
35522;SDS011;61478;50.820;4.330;2023-04-30T12:24:13;4.85;;;4.28;;
35522;SDS011;61478;50.820;4.330;2023-04-30T12:26:40;6.97;;;4.47;;
35522;SDS011;61478;50.820;4.330;2023-04-30T12:31:38;7.03;;;5.00;;
35522;SDS011;61478;50.820;4.330;2023-04-30T12:34:05;10.70;;;6.32;;
35522;SDS011;61478;50.820;4.330;2023-04-30T12:36:33;5.05;;;3.95;;
35522;SDS011;61478;50.820;4.330;2023-04-30T12:39:01;8.77;;;4.55;;
35522;SDS011;61478;50.820;4.330;2023-04-30T12:41:34;8.60;;;4.88;;
35522;SDS011;61478;50.820;4.330;2023-04-30T12:44:18;6.65;;;5.03;;
35522;SDS011;61478;50.820;4.330;2023-04-30T12:46:49;10.43;;;5.20;;
35522;SDS011;61478;50.820;4.330;2023-04-30T12:49:23;5.82;;;5.03;;
35522;SDS011;61478;50.820;4.330;2023-04-30T12:52:02;6.78;;;4.18;;
35522;SDS011;61478;50.820;4.330;2023-04-30T12:54:36;10.93;;;4.95;;
35522;SDS011;61478;50.820;4.330;2023-04-30T12:57:03;7.70;;;4.28;;
35522;SDS011;61478;50.820;4.330;2023-04-30T12:59:30;5.72;;;4.20;;
35522;SDS011;61478;50.820;4.330;2023-04-30T13:02:07;6.82;;;4.20;;
35522;SDS011;61478;50.820;4.330;2023-04-30T13:04:35;6.60;;;4.63;;
35522;SDS011;61478;50.820;4.330;2023-04-30T13:07:01;6.20;;;4.13;;
35522;SDS011;61478;50.820;4.330;2023-04-30T13:09:28;7.10;;;4.38;;
35522;SDS011;61478;50.820;4.330;2023-04-30T13:11:54;5.03;;;3.83;;
35522;SDS011;61478;50.820;4.330;2023-04-30T13:14:20;6.20;;;3.75;;
35522;SDS011;61478;50.820;4.330;2023-04-30T13:16:46;5.70;;;3.60;;
35522;SDS011;61478;50.820;4.330;2023-04-30T13:19:14;5.68;;;3.25;;
35522;SDS011;61478;50.820;4.330;2023-04-30T13:21:40;4.55;;;2.85;;
35522;SDS011;61478;50.820;4.330;2023-04-30T13:24:06;8.48;;;4.82;;
35522;SDS011;61478;50.820;4.330;2023-04-30T13:26:32;5.63;;;4.03;;
35522;SDS011;61478;50.820;4.330;2023-04-30T13:28:58;8.38;;;3.58;;
35522;SDS011;61478;50.820;4.330;2023-04-30T13:31:24;7.53;;;3.10;;
35522;SDS011;61478;50.820;4.330;2023-04-30T13:33:51;5.47;;;3.58;;
35522;SDS011;61478;50.820;4.330;2023-04-30T13:36:18;4.78;;;3.92;;
35522;SDS011;61478;50.820;4.330;2023-04-30T13:38:45;5.35;;;3.30;;
35522;SDS011;61478;50.820;4.330;2023-04-30T13:41:11;4.53;;;3.38;;
35522;SDS011;61478;50.820;4.330;2023-04-30T13:43:37;8.82;;;3.33;;
35522;SDS011;61478;50.820;4.330;2023-04-30T13:46:05;7.20;;;3.17;;
35522;SDS011;61478;50.820;4.330;2023-04-30T13:48:31;5.10;;;3.30;;
35522;SDS011;61478;50.820;4.330;2023-04-30T13:50:57;4.80;;;3.35;;
35522;SDS011;61478;50.820;4.330;2023-04-30T13:53:23;4.20;;;2.72;;
35522;SDS011;61478;50.820;4.330;2023-04-30T13:55:49;3.00;;;2.45;;
35522;SDS011;61478;50.820;4.330;2023-04-30T13:58:15;3.25;;;2.92;;
35522;SDS011;61478;50.820;4.330;2023-04-30T14:00:41;4.63;;;2.28;;
35522;SDS011;61478;50.820;4.330;2023-04-30T14:03:07;3.53;;;2.78;;
35522;SDS011;61478;50.820;4.330;2023-04-30T14:05:32;4.50;;;3.00;;
35522;SDS011;61478;50.820;4.330;2023-04-30T14:07:58;3.35;;;2.60;;
35522;SDS011;61478;50.820;4.330;2023-04-30T14:10:24;3.00;;;2.70;;
35522;SDS011;61478;50.820;4.330;2023-04-30T14:12:50;5.15;;;2.45;;
35522;SDS011;61478;50.820;4.330;2023-04-30T14:15:16;3.05;;;2.70;;
35522;SDS011;61478;50.820;4.330;2023-04-30T14:17:42;4.43;;;2.70;;
35522;SDS011;61478;50.820;4.330;2023-04-30T14:20:08;5.80;;;2.85;;
35522;SDS011;61478;50.820;4.330;2023-04-30T14:22:35;4.65;;;2.90;;
35522;SDS011;61478;50.820;4.330;2023-04-30T14:25:03;5.90;;;3.13;;
35522;SDS011;61478;50.820;4.330;2023-04-30T14:27:29;7.65;;;3.25;;
35522;SDS011;61478;50.820;4.330;2023-04-30T14:29:55;3.38;;;2.92;;
35522;SDS011;61478;50.820;4.330;2023-04-30T14:32:23;6.65;;;3.42;;
35522;SDS011;61478;50.820;4.330;2023-04-30T14:34:50;4.85;;;3.47;;
35522;SDS011;61478;50.820;4.330;2023-04-30T14:37:17;5.68;;;3.58;;
35522;SDS011;61478;50.820;4.330;2023-04-30T14:39:43;4.88;;;3.03;;
35522;SDS011;61478;50.820;4.330;2023-04-30T14:42:10;4.05;;;3.10;;
35522;SDS011;61478;50.820;4.330;2023-04-30T14:44:39;6.70;;;3.22;;
35522;SDS011;61478;50.820;4.330;2023-04-30T14:47:05;4.45;;;3.20;;
35522;SDS011;61478;50.820;4.330;2023-04-30T14:49:31;5.20;;;3.10;;
35522;SDS011;61478;50.820;4.330;2023-04-30T14:51:58;4.78;;;2.50;;
35522;SDS011;61478;50.820;4.330;2023-04-30T14:54:24;3.67;;;3.33;;
35522;SDS011;61478;50.820;4.330;2023-04-30T14:56:50;5.68;;;2.75;;
35522;SDS011;61478;50.820;4.330;2023-04-30T14:59:16;3.63;;;2.60;;
35522;SDS011;61478;50.820;4.330;2023-04-30T15:01:42;4.55;;;2.35;;
35522;SDS011;61478;50.820;4.330;2023-04-30T15:04:08;5.97;;;2.97;;
35522;SDS011;61478;50.820;4.330;2023-04-30T15:06:34;3.00;;;2.20;;